createdAt,value
2023-02-11T00:01:40.002Z,54.20
2023-02-11T00:04:09.208Z,56.00
2023-02-11T00:06:38.847Z,57.55
2023-02-11T00:09:08.359Z,58.10
2023-02-11T00:11:37.196Z,56.95
2023-02-11T00:14:09.575Z,56.15
2023-02-11T00:16:38.903Z,55.30
2023-02-11T00:19:07.949Z,57.90
2023-02-11T00:21:37.150Z,58.30
2023-02-11T00:24:06.204Z,59.97
2023-02-11T00:26:36.709Z,61.85
2023-02-11T00:29:06.466Z,60.90
2023-02-11T00:31:35.922Z,65.82
2023-02-11T00:34:04.687Z,65.80
2023-02-11T00:36:33.471Z,61.20
2023-02-11T00:39:02.427Z,58.90
2023-02-11T00:41:31.856Z,59.63
2023-02-11T00:44:00.788Z,62.88
2023-02-11T00:46:30.143Z,58.80
2023-02-11T00:48:59.764Z,60.65
2023-02-11T00:51:29.680Z,63.13
2023-02-11T00:53:58.635Z,62.28
2023-02-11T00:56:27.880Z,64.50
2023-02-11T00:58:56.630Z,61.38
2023-02-11T01:01:25.713Z,62.78
2023-02-11T01:03:54.551Z,62.80
2023-02-11T01:06:24.089Z,62.30
2023-02-11T01:08:53.514Z,67.28
2023-02-11T01:11:23.502Z,67.00
2023-02-11T01:13:52.562Z,67.90
2023-02-11T01:16:22.012Z,69.60
2023-02-11T01:18:51.262Z,71.30
2023-02-11T01:21:21.304Z,67.18
2023-02-11T01:23:50.051Z,72.03
2023-02-11T01:26:18.858Z,67.15
2023-02-11T01:28:48.415Z,64.53
2023-02-11T01:31:17.365Z,66.05
2023-02-11T01:33:46.025Z,70.28
2023-02-11T01:36:14.871Z,69.85
2023-02-11T01:38:45.400Z,62.08
2023-02-11T01:41:16.110Z,68.40
2023-02-11T01:43:48.966Z,70.47
2023-02-11T01:46:36.881Z,71.57
2023-02-11T01:49:15.292Z,74.18
2023-02-11T01:51:49.487Z,73.82
2023-02-11T01:54:42.227Z,75.25
2023-02-11T01:57:29.526Z,69.63
2023-02-11T02:00:14.748Z,88.65
2023-02-11T02:03:03.556Z,69.47
2023-02-11T02:05:37.810Z,65.90
2023-02-11T02:08:07.405Z,69.05
2023-02-11T02:10:37.940Z,68.38
2023-02-11T02:13:06.580Z,67.20
2023-02-11T02:15:39.807Z,65.47
2023-02-11T02:18:16.348Z,63.90
2023-02-11T02:21:24.396Z,62.92
2023-02-11T02:24:14.221Z,63.38
2023-02-11T02:27:15.519Z,71.45
2023-02-11T02:30:00.571Z,58.22
2023-02-11T02:32:52.818Z,65.93
2023-02-11T02:35:26.869Z,63.45
2023-02-11T02:38:17.538Z,62.25
2023-02-11T02:40:59.446Z,65.38
2023-02-11T02:43:30.791Z,64.93
2023-02-11T02:46:17.505Z,66.47
2023-02-11T02:48:46.915Z,61.78
2023-02-11T02:51:45.200Z,63.13
2023-02-11T02:54:38.067Z,64.35
2023-02-11T02:57:21.041Z,62.40
2023-02-11T03:02:58.687Z,64.80
2023-02-11T03:05:31.762Z,60.58
2023-02-11T03:08:27.039Z,58.90
2023-02-11T03:10:56.866Z,59.70
2023-02-11T03:13:32.988Z,59.92
2023-02-11T03:16:13.500Z,62.08
2023-02-11T03:18:48.281Z,62.70
2023-02-11T03:21:18.882Z,60.08
2023-02-11T03:24:08.899Z,59.25
2023-02-11T03:26:55.730Z,58.78
2023-02-11T03:29:29.789Z,58.97
2023-02-11T03:32:08.490Z,55.88
2023-02-11T03:34:53.784Z,53.33
2023-02-11T03:37:26.656Z,51.72
2023-02-11T03:40:07.095Z,55.38
2023-02-11T03:42:58.374Z,51.75
2023-02-11T03:45:29.015Z,52.95
2023-02-11T03:48:03.474Z,48.40
2023-02-11T03:50:34.316Z,47.03
2023-02-11T03:53:04.661Z,46.05
2023-02-11T03:55:38.676Z,44.72
2023-02-11T03:58:07.905Z,46.05
2023-02-11T04:00:40.718Z,44.60
2023-02-11T04:03:11.065Z,42.65
2023-02-11T04:05:40.648Z,41.30
2023-02-11T04:08:09.665Z,43.33
2023-02-11T04:10:38.821Z,42.90
2023-02-11T04:13:07.763Z,41.40
2023-02-11T04:15:36.468Z,40.80
2023-02-11T04:18:05.527Z,39.83
2023-02-11T04:20:34.171Z,38.33
2023-02-11T04:23:02.988Z,37.55
2023-02-11T04:25:31.721Z,39.80
2023-02-11T04:28:00.508Z,38.95
2023-02-11T04:30:29.430Z,41.42
2023-02-11T04:32:59.236Z,38.42
2023-02-11T04:35:27.853Z,39.70
2023-02-11T04:37:56.556Z,38.45
2023-02-11T04:40:25.225Z,37.35
2023-02-11T04:42:54.035Z,38.85
2023-02-11T04:45:22.810Z,38.47
2023-02-11T04:47:52.160Z,37.40
2023-02-11T04:50:20.900Z,36.72
2023-02-11T04:52:49.831Z,39.10
2023-02-11T04:55:18.811Z,38.38
2023-02-11T04:57:47.587Z,39.85
2023-02-11T05:00:16.988Z,39.00
2023-02-11T05:02:47.682Z,37.10
2023-02-11T05:05:17.483Z,38.50
2023-02-11T05:07:46.130Z,37.83
2023-02-11T05:10:14.784Z,38.55
2023-02-11T05:12:43.899Z,37.92
2023-02-11T05:15:13.272Z,36.28
2023-02-11T05:17:42.652Z,37.40
2023-02-11T05:20:12.007Z,34.72
2023-02-11T05:22:40.984Z,35.33
2023-02-11T05:25:09.774Z,34.45
2023-02-11T05:27:38.669Z,34.95
2023-02-11T05:30:09.003Z,34.17
2023-02-11T05:32:37.765Z,34.55
2023-02-11T05:35:06.910Z,33.30
2023-02-11T05:37:35.639Z,33.70
2023-02-11T05:40:04.812Z,31.83
2023-02-11T05:42:33.659Z,33.10
2023-02-11T05:45:02.427Z,31.23
2023-02-11T05:47:31.158Z,32.00
2023-02-11T05:50:00.509Z,32.53
2023-02-11T05:52:30.028Z,30.05
2023-02-11T05:54:58.749Z,30.90
2023-02-11T05:57:27.396Z,29.45
2023-02-11T05:59:56.066Z,32.10
2023-02-11T06:02:25.030Z,30.10
2023-02-11T06:04:53.999Z,28.00
2023-02-11T06:07:22.764Z,29.73
2023-02-11T06:09:51.485Z,28.58
2023-02-11T06:12:20.333Z,26.75
2023-02-11T06:14:49.027Z,28.88
2023-02-11T06:17:17.673Z,27.27
2023-02-11T06:19:46.316Z,26.38
2023-02-11T06:22:14.969Z,24.90
2023-02-11T06:25:00.426Z,25.92
2023-02-11T06:27:31.172Z,25.88
2023-02-11T06:29:59.847Z,26.98
2023-02-11T06:32:43.320Z,25.05
2023-02-11T06:35:14.324Z,27.65
2023-02-11T06:37:43.607Z,25.58
2023-02-11T06:40:12.979Z,24.65
2023-02-11T06:42:41.789Z,26.50
2023-02-11T06:45:11.837Z,27.58
2023-02-11T06:47:41.752Z,25.40
2023-02-11T06:50:13.710Z,24.70
2023-02-11T06:52:42.606Z,25.52
2023-02-11T06:55:11.311Z,24.38
2023-02-11T06:57:40.249Z,25.67
2023-02-11T07:00:09.969Z,30.42
2023-02-11T07:02:38.753Z,23.90
2023-02-11T07:05:08.723Z,22.40
2023-02-11T07:07:39.182Z,23.10
2023-02-11T07:10:08.251Z,26.52
2023-02-11T07:12:37.110Z,23.58
2023-02-11T07:15:06.297Z,23.00
2023-02-11T07:17:36.937Z,22.77
2023-02-11T07:20:06.711Z,23.65
2023-02-11T07:22:36.368Z,23.88
2023-02-11T07:25:05.460Z,23.98
2023-02-11T07:27:34.370Z,23.38
2023-02-11T07:30:04.932Z,23.80
2023-02-11T07:32:35.646Z,21.77
2023-02-11T07:35:05.094Z,22.35
2023-02-11T07:37:36.247Z,22.95
2023-02-11T07:40:05.298Z,21.67
2023-02-11T07:42:34.911Z,20.13
2023-02-11T07:45:03.885Z,20.83
2023-02-11T07:47:32.652Z,20.42
2023-02-11T07:50:04.556Z,20.30
2023-02-11T07:52:33.660Z,20.50
2023-02-11T07:55:04.499Z,21.77
2023-02-11T07:57:33.599Z,19.30
2023-02-11T08:00:03.029Z,18.75
2023-02-11T08:02:31.771Z,20.35
2023-02-11T08:05:00.469Z,20.10
2023-02-11T08:07:30.670Z,20.58
2023-02-11T08:09:59.595Z,21.10
2023-02-11T08:12:28.302Z,18.40
2023-02-11T08:14:57.359Z,18.58
2023-02-11T08:17:26.057Z,18.98
2023-02-11T08:19:54.729Z,20.40
2023-02-11T08:22:23.438Z,18.63
2023-02-11T08:24:52.543Z,19.90
2023-02-11T08:27:21.242Z,18.95
2023-02-11T08:29:50.041Z,18.83
2023-02-11T08:32:18.808Z,18.00
2023-02-11T08:34:47.496Z,19.52
2023-02-11T08:37:16.157Z,17.08
2023-02-11T08:39:45.245Z,18.23
2023-02-11T08:42:14.232Z,19.67
2023-02-11T08:44:43.360Z,18.45
2023-02-11T08:47:12.168Z,18.05
2023-02-11T08:49:42.828Z,18.80
2023-02-11T08:52:11.627Z,19.65
2023-02-11T08:54:40.408Z,17.42
2023-02-11T08:57:09.143Z,18.83
2023-02-11T08:59:38.062Z,17.30
2023-02-11T09:02:07.220Z,17.33
2023-02-11T09:04:35.896Z,17.23
2023-02-11T09:07:05.718Z,17.55
2023-02-11T09:09:34.414Z,18.38
2023-02-11T09:12:03.189Z,20.23
2023-02-11T09:14:32.083Z,15.38
2023-02-11T09:17:00.744Z,17.73
2023-02-11T09:19:29.488Z,18.13
2023-02-11T09:21:58.999Z,17.95
2023-02-11T09:24:27.631Z,17.35
2023-02-11T09:26:56.317Z,18.42
2023-02-11T09:29:24.993Z,16.30
2023-02-11T09:31:53.805Z,17.52
2023-02-11T09:34:22.513Z,16.23
2023-02-11T09:36:51.191Z,15.98
2023-02-11T09:39:21.474Z,15.75
2023-02-11T09:42:14.012Z,16.52
2023-02-11T09:44:47.678Z,17.00
2023-02-11T09:47:33.437Z,16.73
2023-02-11T09:50:13.659Z,18.05
2023-02-11T09:52:55.052Z,16.63
2023-02-11T09:55:30.428Z,17.30
2023-02-11T09:57:59.696Z,19.75
2023-02-11T10:00:38.631Z,16.27
2023-02-11T10:03:14.941Z,16.27
2023-02-11T10:05:53.663Z,16.60
2023-02-11T10:08:29.038Z,15.93
2023-02-11T10:11:31.580Z,17.17
2023-02-11T10:14:20.978Z,15.90
2023-02-11T10:17:10.705Z,18.27
2023-02-11T10:19:59.443Z,16.42
2023-02-11T10:22:53.693Z,16.20
2023-02-11T10:25:27.324Z,16.13
2023-02-11T10:27:59.487Z,16.13
2023-02-11T10:30:35.627Z,15.90
2023-02-11T10:33:16.940Z,15.02
2023-02-11T10:35:46.695Z,15.75
2023-02-11T10:38:15.452Z,14.80
2023-02-11T10:40:44.992Z,14.43
2023-02-11T10:43:17.054Z,15.07
2023-02-11T10:45:49.825Z,16.67
2023-02-11T10:48:54.734Z,20.42
2023-02-11T10:51:27.419Z,15.05
2023-02-11T10:54:21.078Z,15.95
2023-02-11T10:56:53.830Z,15.10
2023-02-11T10:59:28.946Z,15.38
2023-02-11T11:02:01.766Z,20.85
2023-02-11T11:04:34.674Z,21.25
2023-02-11T11:07:21.991Z,19.92
2023-02-11T11:10:03.616Z,17.00
2023-02-11T11:12:35.922Z,16.15
2023-02-11T11:15:12.999Z,16.55
2023-02-11T11:20:33.479Z,14.93
2023-02-11T11:23:19.531Z,17.15
2023-02-11T11:26:06.339Z,17.20
2023-02-11T11:28:53.495Z,18.20
2023-02-11T11:31:30.827Z,18.27
2023-02-11T11:34:03.087Z,16.67
2023-02-11T11:36:37.072Z,16.77
2023-02-11T11:39:25.243Z,16.27
2023-02-11T11:41:58.593Z,19.52
2023-02-11T11:44:34.233Z,17.40
2023-02-11T11:47:27.086Z,23.38
2023-02-11T11:50:24.776Z,18.17
2023-02-11T11:53:33.290Z,17.45
2023-02-11T11:56:13.483Z,17.05
2023-02-11T11:58:43.266Z,18.02
2023-02-11T12:01:32.300Z,18.10
2023-02-11T12:04:25.412Z,18.48
2023-02-11T12:09:43.958Z,22.27
2023-02-11T12:12:33.512Z,19.60
2023-02-11T12:15:03.124Z,20.20
2023-02-11T12:17:51.870Z,22.58
2023-02-11T12:20:54.189Z,21.92
2023-02-11T12:23:51.701Z,23.92
2023-02-11T12:26:24.637Z,23.60
2023-02-11T12:29:14.040Z,19.27
2023-02-11T12:32:04.835Z,25.58
2023-02-11T12:34:47.917Z,22.95
2023-02-11T12:37:36.593Z,20.20
2023-02-11T12:40:44.499Z,21.98
2023-02-11T12:43:37.800Z,22.05
2023-02-11T12:46:11.272Z,21.73
2023-02-11T12:48:48.417Z,24.38
2023-02-11T12:51:37.101Z,21.08
2023-02-11T12:54:15.261Z,23.38
2023-02-11T12:56:45.796Z,23.02
2023-02-11T12:59:23.950Z,22.25
2023-02-11T13:01:55.042Z,23.17
2023-02-11T13:04:47.862Z,23.75
2023-02-11T13:07:27.557Z,26.60
2023-02-11T13:10:07.318Z,29.67
2023-02-11T13:12:58.292Z,26.90
2023-02-11T13:15:27.755Z,25.70
2023-02-11T13:18:17.400Z,29.05
2023-02-11T13:20:53.174Z,27.30
2023-02-11T13:23:29.936Z,28.30
2023-02-11T13:26:14.365Z,34.05
2023-02-11T13:28:54.307Z,26.98
2023-02-11T13:31:27.662Z,29.25
2023-02-11T13:33:57.430Z,30.27
2023-02-11T13:36:31.123Z,26.73
2023-02-11T13:39:03.521Z,28.48
2023-02-11T13:41:42.591Z,25.67
2023-02-11T13:44:12.758Z,27.40
2023-02-11T13:47:01.009Z,28.17
2023-02-11T13:49:35.068Z,31.33
2023-02-11T13:52:07.058Z,27.98
2023-02-11T13:54:40.240Z,28.70
2023-02-11T13:57:28.183Z,29.88
2023-02-11T14:00:00.134Z,31.42
2023-02-11T14:02:52.667Z,27.42
2023-02-11T14:05:42.970Z,26.77
2023-02-11T14:08:32.124Z,30.58
2023-02-11T14:11:02.422Z,30.67
2023-02-11T14:13:33.025Z,31.48
2023-02-11T14:16:35.313Z,26.80
2023-02-11T14:19:05.472Z,29.50
2023-02-11T14:21:39.526Z,30.73
2023-02-11T14:24:12.549Z,30.92
2023-02-11T14:26:53.720Z,29.42
2023-02-11T14:29:47.039Z,28.10
2023-02-11T14:32:54.943Z,29.08
2023-02-11T14:35:31.592Z,25.83
2023-02-11T14:38:20.306Z,25.30
2023-02-11T14:41:11.983Z,27.90
2023-02-11T14:43:46.268Z,27.60
2023-02-11T14:46:18.263Z,28.23
2023-02-11T14:48:50.055Z,26.63
2023-02-11T14:51:26.790Z,30.60
2023-02-11T14:54:02.361Z,25.30
2023-02-11T14:56:32.793Z,25.27
2023-02-11T14:59:03.595Z,25.60
2023-02-11T15:01:36.228Z,25.35
2023-02-11T15:06:40.250Z,30.65
2023-02-11T15:09:19.573Z,28.73
2023-02-11T15:11:50.558Z,29.83
2023-02-11T15:14:29.191Z,25.65
2023-02-11T15:17:02.397Z,29.80
2023-02-11T15:19:34.512Z,25.42
2023-02-11T15:22:06.539Z,24.63
2023-02-11T15:24:37.080Z,25.60
2023-02-11T15:27:16.976Z,26.35
2023-02-11T15:29:50.384Z,25.60
2023-02-11T15:32:22.660Z,27.92
2023-02-11T15:34:53.782Z,22.98
2023-02-11T15:37:30.802Z,24.05
2023-02-11T15:40:12.226Z,23.77
2023-02-11T15:42:52.118Z,22.33
2023-02-11T15:45:26.983Z,23.42
2023-02-11T15:48:00.346Z,23.25
2023-02-11T15:50:32.391Z,23.30
2023-02-11T15:53:05.347Z,24.60
2023-02-11T15:55:34.808Z,25.35
2023-02-11T15:58:03.759Z,25.80
2023-02-11T16:00:38.038Z,28.65
2023-02-11T16:03:06.875Z,28.48
2023-02-11T16:05:38.457Z,28.35
2023-02-11T16:08:26.087Z,32.00
2023-02-11T16:11:04.126Z,27.80
2023-02-11T16:13:36.714Z,29.58
2023-02-11T16:16:18.624Z,30.13
2023-02-11T16:19:04.349Z,32.72
2023-02-11T16:21:46.286Z,31.48
2023-02-11T16:24:35.409Z,35.90
2023-02-11T16:27:16.629Z,33.30
2023-02-11T16:29:49.318Z,31.25
2023-02-11T16:34:50.056Z,32.45
2023-02-11T16:37:19.009Z,35.10
2023-02-11T16:39:47.650Z,29.27
2023-02-11T16:42:16.387Z,31.73
2023-02-11T16:44:45.701Z,30.15
2023-02-11T16:47:24.436Z,31.88
2023-02-11T16:49:53.315Z,30.15
2023-02-11T16:52:23.898Z,33.30
2023-02-11T16:54:52.957Z,32.05
2023-02-11T16:57:25.431Z,32.00
2023-02-11T17:01:32.681Z,33.13
2023-02-11T17:04:04.553Z,31.50
2023-02-11T17:06:34.738Z,33.65
2023-02-11T17:09:03.557Z,32.90
2023-02-11T17:11:32.950Z,33.60
2023-02-11T17:14:01.565Z,33.10
2023-02-11T17:16:31.111Z,32.20
2023-02-11T17:19:02.998Z,32.30
2023-02-11T17:21:32.924Z,31.57
2023-02-11T17:24:01.650Z,32.08
2023-02-11T17:26:30.356Z,34.20
2023-02-11T17:28:59.152Z,30.70
2023-02-11T17:31:28.001Z,31.77
2023-02-11T17:33:57.806Z,33.45
2023-02-11T17:36:26.431Z,34.63
2023-02-11T17:38:57.444Z,31.52
2023-02-11T17:41:26.683Z,34.30
2023-02-11T17:43:55.435Z,32.60
2023-02-11T17:46:24.280Z,33.15
2023-02-11T17:48:54.233Z,31.90
2023-02-11T17:51:29.706Z,32.60
2023-02-11T17:54:01.290Z,33.33
2023-02-11T17:56:32.935Z,36.45
2023-02-11T17:59:03.653Z,34.05
2023-02-11T18:01:34.459Z,33.42
2023-02-11T18:04:03.888Z,33.90
2023-02-11T18:06:34.729Z,35.38
2023-02-11T18:09:05.324Z,32.88
2023-02-11T18:11:35.925Z,35.58
2023-02-11T18:14:08.625Z,33.90
2023-02-11T18:19:08.816Z,36.13
2023-02-11T18:21:38.528Z,33.00
2023-02-11T18:24:07.450Z,33.35
2023-02-11T18:26:36.608Z,39.55
2023-02-11T18:29:07.150Z,33.92
2023-02-11T18:31:37.331Z,31.73
2023-02-11T18:34:08.409Z,32.75
2023-02-11T18:36:38.155Z,32.65
2023-02-11T18:39:10.541Z,36.53
2023-02-11T18:41:41.701Z,32.92
2023-02-11T18:44:10.744Z,34.47
2023-02-11T18:46:39.359Z,41.47
2023-02-11T18:49:08.510Z,47.40
2023-02-11T18:51:37.169Z,44.55
2023-02-11T18:54:06.519Z,41.08
2023-02-11T18:56:35.234Z,40.20
2023-02-11T18:59:04.580Z,37.90
2023-02-11T19:01:35.248Z,34.45
2023-02-11T19:04:06.090Z,39.95
2023-02-11T19:06:38.580Z,45.95
2023-02-11T19:09:11.349Z,46.10
2023-02-11T19:14:33.142Z,51.75
2023-02-11T19:17:05.673Z,43.47
2023-02-11T19:19:37.794Z,49.47
2023-02-11T19:22:10.288Z,43.38
2023-02-11T19:27:07.838Z,38.47
2023-02-11T19:29:36.594Z,39.53
2023-02-11T19:32:07.246Z,39.17
2023-02-11T19:34:42.319Z,35.83
2023-02-11T19:37:13.726Z,39.80
2023-02-11T19:39:43.688Z,38.20
2023-02-11T19:42:13.528Z,38.78
2023-02-11T19:44:42.273Z,36.92
2023-02-11T19:47:11.462Z,39.78
2023-02-11T19:49:40.181Z,39.58
2023-02-11T19:52:09.523Z,37.40
2023-02-11T19:54:40.652Z,37.88
2023-02-11T19:57:09.307Z,38.60
2023-02-11T19:59:38.672Z,37.80
2023-02-11T20:02:08.059Z,38.15
2023-02-11T20:04:37.354Z,38.65
2023-02-11T20:07:06.377Z,37.38
2023-02-11T20:09:35.062Z,37.45
2023-02-11T20:12:03.723Z,36.53
2023-02-11T20:14:32.508Z,42.83
2023-02-11T20:17:01.302Z,37.83
2023-02-11T20:19:31.822Z,38.75
2023-02-11T20:22:00.507Z,36.17
2023-02-11T20:24:29.296Z,39.60
2023-02-11T20:26:57.984Z,40.40
2023-02-11T20:29:27.403Z,39.80
2023-02-11T20:31:57.022Z,38.97
2023-02-11T20:34:26.256Z,38.53
2023-02-11T20:36:55.751Z,40.00
2023-02-11T20:39:27.940Z,40.20
2023-02-11T20:41:57.482Z,38.90
2023-02-11T20:44:27.027Z,38.38
2023-02-11T20:46:55.847Z,41.35
2023-02-11T20:49:26.321Z,41.70
2023-02-11T20:51:55.337Z,41.08
2023-02-11T20:54:26.280Z,39.45
2023-02-11T20:56:55.494Z,44.00
2023-02-11T20:59:24.969Z,44.03
2023-02-11T21:01:56.435Z,46.00
2023-02-11T21:04:28.633Z,45.75
2023-02-11T21:07:01.086Z,43.40
2023-02-11T21:09:33.408Z,45.47
2023-02-11T21:12:02.863Z,44.95
2023-02-11T21:14:32.042Z,42.08
2023-02-11T21:17:00.864Z,42.13
2023-02-11T21:19:29.588Z,43.58
2023-02-11T21:22:01.507Z,42.70
2023-02-11T21:24:31.806Z,43.33
2023-02-11T21:27:00.638Z,43.63
2023-02-11T21:29:29.414Z,43.75
2023-02-11T21:31:58.164Z,43.85
2023-02-11T21:34:26.814Z,50.22
2023-02-11T21:36:55.601Z,45.55
2023-02-11T21:39:24.310Z,45.10
2023-02-11T21:41:53.177Z,44.80
2023-02-11T21:44:21.937Z,44.65
2023-02-11T21:46:50.742Z,43.70
2023-02-11T21:49:21.158Z,45.13
2023-02-11T21:51:49.894Z,43.60
2023-02-11T21:54:19.734Z,44.75
2023-02-11T21:56:50.964Z,45.00
2023-02-11T21:59:23.428Z,45.20
2023-02-11T22:01:52.549Z,44.63
2023-02-11T22:04:21.197Z,43.85
2023-02-11T22:06:49.903Z,44.88
2023-02-11T22:09:18.658Z,44.65
2023-02-11T22:11:47.455Z,42.55
2023-02-11T22:14:17.032Z,45.50
2023-02-11T22:16:48.026Z,43.17
2023-02-11T22:19:16.792Z,43.33
2023-02-11T22:21:45.565Z,45.38
2023-02-11T22:24:14.349Z,45.08
2023-02-11T22:26:43.253Z,44.85
2023-02-11T22:29:13.310Z,43.70
2023-02-11T22:31:42.078Z,44.00
2023-02-11T22:34:10.967Z,42.72
2023-02-11T22:36:42.349Z,44.17
2023-02-11T22:39:14.573Z,45.72
2023-02-11T22:41:45.705Z,48.72
2023-02-11T22:44:16.049Z,47.00
2023-02-11T22:46:45.449Z,44.33
2023-02-11T22:49:16.626Z,45.20
2023-02-11T22:51:45.696Z,46.90
2023-02-11T22:54:17.975Z,46.05
2023-02-11T22:56:47.378Z,47.20
2023-02-11T22:59:17.495Z,45.70
2023-02-11T23:01:46.785Z,47.22
2023-02-11T23:04:18.774Z,47.03
2023-02-11T23:06:48.940Z,71.47
2023-02-11T23:09:17.850Z,57.53
2023-02-11T23:11:47.914Z,57.47
2023-02-11T23:14:16.660Z,56.67
2023-02-11T23:16:45.400Z,57.28
2023-02-11T23:19:14.140Z,53.97
2023-02-11T23:21:43.035Z,50.20
2023-02-11T23:24:15.277Z,51.03
2023-02-11T23:26:45.254Z,53.65
2023-02-11T23:29:14.332Z,56.38
2023-02-11T23:31:46.957Z,47.38
2023-02-11T23:34:18.116Z,46.63
2023-02-11T23:36:46.857Z,46.95
2023-02-11T23:39:16.929Z,47.22
2023-02-11T23:41:46.166Z,46.00
2023-02-11T23:44:14.980Z,47.50
2023-02-11T23:46:43.667Z,50.63
2023-02-11T23:49:12.357Z,50.35
2023-02-11T23:51:41.027Z,50.05
2023-02-11T23:54:12.507Z,50.90
2023-02-11T23:56:43.243Z,49.80
2023-02-11T23:59:12.583Z,51.03
